Data for 06/03/2015

Time Sea-Level Adjusted Pressure Absolute Pressure Temperature Relative Humidity Dew Point   
(mb) (inHg) (mb) (inHg) (C) (F) (%) (C) (F)
00:05 1019 30.09 848 25.04 9.7 49.5 89 8 46.5
00:10 1019 30.09 848 25.04 9.7 49.5 89 8 46.5
00:15 1019 30.09 848 25.04 9.8 49.6 90 8.2 46.8
00:20 1019 30.09 848 25.04 9.7 49.4 90 8.1 46.6
00:25 1019 30.09 848 25.04 9.6 49.2 90 8.1 46.5
00:30 1019 30.09 848 25.04 9.5 49.1 91 8.1 46.5
00:35 1019 30.09 848 25.04 9.5 49 91 8 46.5
00:40 1019 30.09 848 25.04 9.4 48.8 91 7.9 46.3
00:45 1019 30.09 848 25.04 9.4 48.9 90 7.9 46.1
00:50 1019 30.09 848 25.04 9.4 49 90 7.9 46.2
00:55 1019 30.09 848 25.04 9.5 49.1 90 7.9 46.3
01:00 1019 30.09 848 25.04 9.5 49.1 90 8 46.3
01:05 1019 30.09 848 25.04 9.5 49 90 7.9 46.3
01:10 1019 30.09 848 25.04 9.4 48.9 90 7.9 46.2
01:15 1019 30.09 848 25.04 9.3 48.8 91 7.9 46.2
01:20 1019 30.09 848 25.04 9.3 48.7 90 7.8 46
01:25 1019 30.09 848 25.04 9.3 48.7 90 7.7 45.8
01:30 1019 30.09 848 25.04 9.3 48.7 90 7.7 45.8
01:35 1019 30.09 848 25.04 9.3 48.7 90 7.7 45.8
01:40 1019 30.09 848 25.04 9.2 48.6 90 7.6 45.8
01:45 1019 30.09 848 25.04 9.2 48.6 90 7.6 45.8
01:50 1019 30.09 848 25.04 9.2 48.6 89 7.5 45.5
01:55 1019 30.09 848 25.04 9.2 48.5 89 7.5 45.5
02:00 1019 30.09 848 25.04 9.2 48.5 89 7.6 45.6
02:05 1019 30.09 848 25.04 9.1 48.4 90 7.6 45.7
02:10 1019 30.09 848 25.04 9 48.3 90 7.5 45.6
02:15 1019 30.09 848 25.04 9 48.2 90 7.5 45.5
02:20 1019 30.09 848 25.04 9.1 48.3 90 7.6 45.7
02:25 1019 30.09 848 25.04 9.1 48.4 90 7.5 45.6
02:30 1019 30.09 848 25.04 9.1 48.4 90 7.5 45.5
02:35 1019 30.09 848 25.04 9.1 48.4 90 7.5 45.5
02:40 1019 30.09 848 25.04 9 48.2 90 7.4 45.4
02:45 1018 30.06 848 25.04 8.7 47.7 90 7.2 45
02:50 1018 30.06 848 25.04 8.5 47.3 90 7 44.6
02:55 1018 30.06 848 25.04 8.4 47.1 90 6.8 44.2
03:00 1018 30.06 847 25.01 8.3 46.9 89 6.6 43.9
03:05 1018 30.06 847 25.01 8.1 46.6 90 6.5 43.7
03:10 1018 30.06 847 25.01 8.1 46.5 88 6.3 43.3
03:15 1018 30.06 847 25.01 8.2 46.8 87 6.2 43.2
03:20 1018 30.06 848 25.04 8.4 47.1 87 6.3 43.3
03:25 1018 30.06 847 25.01 8.3 46.9 86 6.1 43
03:30 1018 30.06 847 25.01 8 46.4 87 6.1 42.9
03:35 1018 30.06 847 25.01 7.7 45.9 88 5.9 42.6
03:40 1018 30.06 847 25.01 7.6 45.6 89 5.9 42.6
03:45 1018 30.06 847 25.01 7.3 45.2 89 5.7 42.2
03:50 1018 30.06 847 25.01 7 44.6 89 5.4 41.7
03:55 1018 30.06 847 25.01 7.1 44.7 88 5.2 41.3
04:00 1018 30.06 847 25.01 7.1 44.8 88 5.2 41.4
04:05 1018 30.06 847 25.01 7.2 44.9 88 5.3 41.6
04:10 1018 30.06 847 25.01 7.3 45.2 88 5.4 41.8
04:15 1018 30.06 847 25.01 7.4 45.3 88 5.5 41.9
04:20 1018 30.06 847 25.01 7.4 45.4 87 5.4 41.8
04:25 1018 30.06 847 25.01 7.4 45.3 87 5.3 41.6
04:30 1018 30.06 848 25.04 7.4 45.3 87 5.4 41.7
04:35 1018 30.06 848 25.04 7.2 44.9 88 5.3 41.5
04:40 1018 30.06 848 25.04 6.9 44.4 87 5 40.9
04:45 1018 30.06 848 25.04 6.8 44.2 87 4.8 40.7
04:50 1018 30.06 847 25.01 6.9 44.4 87 4.9 40.8
04:55 1018 30.06 847 25.01 7 44.7 87 5 40.9
05:00 1018 30.06 847 25.01 7.2 45 86 5 41.1
05:05 1018 30.06 847 25.01 7.3 45.1 86 5.1 41.2
05:10 1018 30.06 847 25.01 7.3 45.2 85 5.1 41.1
05:15 1018 30.06 847 25.01 7.4 45.3 85 5 41.1
05:20 1018 30.06 847 25.01 7.4 45.3 85 5 41
05:25 1018 30.06 847 25.01 7.5 45.5 84 5 41.1
05:30 1018 30.06 847 25.01 7.6 45.7 83 4.9 40.9
05:35 1018 30.06 847 25.01 7.8 46.1 83 5.1 41.1
05:40 1018 30.06 847 25.01 7.8 46.1 83 5.1 41.1
05:45 1018 30.06 847 25.01 7.9 46.2 84 5.4 41.7
05:50 1018 30.06 848 25.04 8.2 46.7 82 5.2 41.4
05:55 1018 30.06 848 25.04 8.4 47.2 80 5.1 41.2
06:00 1018 30.06 848 25.04 8.9 47.9 79 5.5 41.9
06:05 1018 30.06 848 25.04 9.2 48.6 75 5.1 41.2
06:10 1018 30.06 848 25.04 9.2 48.6 76 5.1 41.2
06:15 1018 30.06 848 25.04 9.2 48.5 77 5.4 41.6
06:20 1019 30.09 848 25.04 9.2 48.6 77 5.3 41.6
06:25 1019 30.09 848 25.04 9.1 48.3 78 5.5 41.9
06:30 1019 30.09 848 25.04 9.2 48.5 80 5.9 42.5
06:35 1019 30.09 848 25.04 9.7 49.4 78 6 42.9
06:40 1018 30.06 848 25.04 10.1 50.1 75 5.8 42.5
06:45 1018 30.06 848 25.04 10.5 50.9 73 5.9 42.6
06:50 1018 30.06 848 25.04 10.5 50.8 73 5.8 42.5
06:55 1018 30.06 848 25.04 10.6 51.2 75 6.5 43.6
07:00 1018 30.06 848 25.04 10.8 51.4 71 5.8 42.4
07:05 1018 30.06 848 25.04 11.2 52.2 69 5.9 42.6
07:10 1018 30.06 848 25.04 11.5 52.7 70 6.2 43.1
07:15 1018 30.06 848 25.04 12.3 54.2 68 6.6 43.8
07:20 1018 30.06 848 25.04 12.6 54.7 66 6.5 43.7
07:25 1018 30.06 848 25.04 13 55.4 63 6.3 43.4
07:30 1018 30.06 848 25.04 12.8 55 66 6.7 44
07:35 1018 30.06 848 25.04 13.1 55.5 64 6.4 43.5
07:40 1018 30.06 847 25.01 13.2 55.7 62 6.2 43.1
07:45 1018 30.06 847 25.01 12.8 55 63 6 42.8
07:50 1018 30.06 848 25.04 12.9 55.2 65 6.4 43.5
07:55 1018 30.06 848 25.04 13 55.4 63 6.3 43.3
08:00 1018 30.06 848 25.04 12.8 55 65 6.5 43.8
08:05 1018 30.06 848 25.04 13.1 55.6 62 6.1 42.9
08:10 1018 30.06 848 25.04 13.7 56.6 61 6.4 43.6
08:15 1018 30.06 848 25.04 13.5 56.4 61 6.1 43.1
08:20 1018 30.06 847 25.01 13.6 56.4 61 6.2 43.1
08:25 1018 30.06 847 25.01 13.2 55.8 62 6.3 43.3
08:30 1018 30.06 847 25.01 13.7 56.6 59 5.9 42.6
08:35 1018 30.06 847 25.01 13.7 56.7 60 6.2 43.2
08:40 1018 30.06 847 25.01 14.1 57.4 59 6.3 43.4
08:45 1018 30.06 847 25.01 14.1 57.4 60 6.5 43.6
08:50 1018 30.06 847 25.01 15 59.1 55 6.2 43.2
08:55 1018 30.06 847 25.01 15.5 59.8 54 6.4 43.4
09:00 1018 30.06 847 25.01 15.2 59.4 54 6 42.8
09:05 1018 30.06 847 25.01 15.6 60 53 6.1 43
09:10 1018 30.06 847 25.01 15.5 59.8 56 6.7 44
09:15 1018 30.06 847 25.01 15.7 60.2 50 5.5 41.9
09:20 1018 30.06 847 25.01 15.6 60 52 5.8 42.5
09:25 1018 30.06 847 25.01 16.2 61.2 50 5.8 42.5
09:30 1018 30.06 847 25.01 17.1 62.8 46 5.6 42.2
09:35 1018 30.06 847 25.01 16.1 61 52 6.3 43.4
09:40 1018 30.06 847 25.01 15.6 60.1 49 5.2 41.3
09:45 1018 30.06 847 25.01 15.6 60 51 5.5 41.9
09:50 1018 30.06 847 25.01 16.5 61.7 48 5.6 42.1
09:55 1018 30.06 847 25.01 17.3 63.2 50 6.9 44.5
10:00 1018 30.06 847 25.01 16.9 62.4 50 6.5 43.7
10:05 1018 30.06 847 25.01 15.6 60 50 5.3 41.5
10:10 1018 30.06 847 25.01 16.7 62 50 6.4 43.4
10:15 1018 30.06 847 25.01 17.4 63.4 47 6.2 43.1
10:20 1017 30.03 847 25.01 16.8 62.3 49 6.2 43.2
10:25 1018 30.06 847 25.01 16.7 62 50 6.3 43.3
10:30 1018 30.06 847 25.01 16.5 61.7 53 6.9 44.5
10:35 1018 30.06 847 25.01 15.9 60.7 53 6.5 43.8
10:40 1018 30.06 847 25.01 16.2 61.1 49 5.5 41.9
10:45 1017 30.03 847 25.01 15.7 60.3 50 5.5 42
10:50 1017 30.03 847 25.01 15.5 59.9 51 5.6 42.1
10:55 1018 30.06 847 25.01 16.5 61.6 48 5.5 41.9
11:00 1017 30.03 847 25.01 16.8 62.2 46 5.3 41.5
11:05 1017 30.03 847 25.01 17.4 63.2 43 4.9 40.8
11:10 1017 30.03 847 25.01 17.9 64.2 44 5.6 42
11:15 1017 30.03 847 25.01 18.2 64.7 44 5.7 42.3
11:20 1017 30.03 846 24.98 18.3 65 43 5.7 42.3
11:25 1017 30.03 846 24.98 18.9 65.9 42 5.7 42.2
11:30 1017 30.03 846 24.98 19.5 67 41 6 42.8
11:35 1017 30.03 846 24.98 19.2 66.5 40 5.3 41.5
11:40 1017 30.03 846 24.98 19.5 67.1 41 5.9 42.7
11:45 1017 30.03 846 24.98 19.5 67 41 5.9 42.6
11:50 1017 30.03 846 24.98 18.3 65 44 6.1 42.9
11:55 1017 30.03 846 24.98 18.6 65.4 40 4.9 40.9
12:00 1017 30.03 846 24.98 18.9 66.1 39 4.7 40.5
12:05 1017 30.03 846 24.98 18.6 65.6 41 5.3 41.6
12:10 1017 30.03 846 24.98 19.1 66.3 38 4.6 40.2
12:15 1017 30.03 846 24.98 18.8 65.8 41 5.5 41.8
12:20 1017 30.03 846 24.98 18.4 65.1 42 5.4 41.6
12:25 1017 30.03 846 24.98 19 66.1 39 4.7 40.5
12:30 1016 30 846 24.98 19.8 67.7 40 6 42.7
12:35 1016 30 846 24.98 19.1 66.4 38 4.6 40.2
12:40 1016 30 846 24.98 20 68.1 35 4.1 39.4
12:45 1016 30 845 24.95 20.4 68.6 35 4.7 40.5
12:50 1016 30 845 24.95 20.2 68.4 33 3.8 38.9
12:55 1016 30 845 24.95 21.2 70.1 33 4.5 40.2
13:00 1016 30 845 24.95 21.3 70.3 32 3.9 39
13:05 1016 30 845 24.95 20.9 69.6 31 3.1 37.6
13:10 1016 30 845 24.95 21.3 70.4 31 3.7 38.7
13:15 1016 30 845 24.95 21.1 70 30 2.9 37.2
13:20 1016 30 845 24.95 21.1 70.1 30 3.2 37.8
13:25 1016 30 845 24.95 21.2 70.2 29 2.6 36.7
13:30 1016 30 845 24.95 21.3 70.3 29 2.8 37
13:35 1016 30 845 24.95 20.5 68.9 29 2.3 36.1
13:40 1016 30 845 24.95 19.8 67.6 33 3 37.4
13:45 1016 30 845 24.95 19.5 67.2 31 2.2 36
13:50 1016 30 845 24.95 19.9 67.8 30 1.8 35.2
13:55 1016 30 845 24.95 21 69.8 28 2.1 35.8
14:00 1016 30 845 24.95 20.6 69.2 29 2.1 35.8
14:05 1016 30 845 24.95 21.2 70.1 27 1.7 35
14:10 1015 29.97 845 24.95 21.6 70.8 26 1.2 34.2
14:15 1015 29.97 845 24.95 21.8 71.2 27 2.2 35.9
14:20 1015 29.97 845 24.95 21 69.8 28 1.9 35.3
14:25 1015 29.97 845 24.95 21.6 71 26 1.5 34.7
14:30 1015 29.97 845 24.95 21 69.7 29 2.2 36
14:35 1015 29.97 845 24.95 21 69.8 29 2.4 36.3
14:40 1015 29.97 844 24.92 21.6 70.9 27 1.8 35.2
14:45 1015 29.97 844 24.92 21.7 71.1 26 1.4 34.4
14:50 1015 29.97 844 24.92 21.6 70.9 26 1.4 34.6
14:55 1015 29.97 844 24.92 21.6 70.9 25 0.9 33.6
15:00 1015 29.97 844 24.92 21.7 71.1 27 2 35.7
15:05 1015 29.97 844 24.92 20.7 69.3 27 1.3 34.4
15:10 1015 29.97 844 24.92 21.1 69.9 27 1.8 35.2
15:15 1015 29.97 844 24.92 21.1 70 28 2.1 35.7
15:20 1015 29.97 844 24.92 20.4 68.7 29 1.9 35.5
15:25 1015 29.97 844 24.92 20.2 68.3 28 1.4 34.6
15:30 1015 29.97 844 24.92 20.4 68.8 28 1.3 34.4
15:35 1015 29.97 844 24.92 20.3 68.6 29 1.8 35.3
15:40 1015 29.97 844 24.92 20.6 69.1 28 1.8 35.3
15:45 1015 29.97 844 24.92 20.4 68.7 28 1.5 34.7
15:50 1014 29.94 844 24.92 20.3 68.5 28 1.2 34.1
15:55 1014 29.94 844 24.92 21.2 70.1 27 1.5 34.7
16:00 1014 29.94 843 24.89 21.4 70.5 26 1.4 34.5
16:05 1014 29.94 843 24.89 21.4 70.6 26 1.4 34.6
16:10 1014 29.94 843 24.89 20.8 69.4 26 0.9 33.6
16:15 1014 29.94 843 24.89 21.5 70.6 25 0.9 33.6
16:20 1014 29.94 843 24.89 21.2 70.2 27 1.4 34.5
16:25 1014 29.94 843 24.89 20.8 69.5 27 1.1 33.9
16:30 1014 29.94 843 24.89 21.2 70.2 25 0.8 33.4
16:35 1014 29.94 843 24.89 20.8 69.5 27 1.1 34
16:40 1014 29.94 843 24.89 21.2 70.2 27 1.4 34.6
16:45 1014 29.94 843 24.89 21.4 70.5 26 1.5 34.8
16:50 1014 29.94 843 24.89 21.3 70.3 27 1.7 35.1
16:55 1014 29.94 843 24.89 20.9 69.6 28 1.8 35.3
17:00 1014 29.94 843 24.89 20.9 69.6 28 1.7 35
17:05 1014 29.94 843 24.89 20.5 69 29 1.9 35.5
17:10 1014 29.94 843 24.89 20.8 69.4 30 2.8 37
17:15 1014 29.94 843 24.89 20.8 69.4 29 2.2 36
17:20 1014 29.94 843 24.89 20.7 69.3 29 2.1 35.8
17:25 1014 29.94 843 24.89 20.8 69.4 30 2.8 37
17:30 1014 29.94 843 24.89 20.5 68.9 30 2.7 36.8
17:35 1014 29.94 843 24.89 20.3 68.6 31 2.7 36.8
17:40 1014 29.94 843 24.89 20.3 68.6 30 2.5 36.5
17:45 1014 29.94 843 24.89 20.6 69.1 30 2.6 36.6
17:50 1014 29.94 843 24.89 20.4 68.7 32 3.5 38.3
17:55 1014 29.94 843 24.89 20.2 68.3 29 2 35.5
18:00 1014 29.94 843 24.89 19.6 67.2 31 2 35.7
18:05 1014 29.94 843 24.89 19.5 67 31 2.2 35.9
18:10 1014 29.94 843 24.89 20 68 31 2.5 36.4
18:15 1014 29.94 843 24.89 20.1 68.2 31 2.4 36.4
18:20 1014 29.94 843 24.89 19.9 67.8 32 2.7 36.8
18:25 1014 29.94 843 24.89 19.7 67.4 31 2.3 36.1
18:30 1014 29.94 844 24.92 19.5 67.1 32 2.6 36.7
18:35 1014 29.94 844 24.92 19.8 67.6 32 2.6 36.7
18:40 1015 29.97 844 24.92 19.8 67.7 32 2.7 36.9
18:45 1015 29.97 844 24.92 19.5 67 33 3 37.3
18:50 1015 29.97 844 24.92 19.3 66.7 36 3.8 38.8
18:55 1015 29.97 844 24.92 18.8 65.8 41 5.3 41.5
19:00 1015 29.97 844 24.92 16.4 61.5 48 5.5 41.8
19:05 1015 29.97 844 24.92 15 59 51 5.1 41.1
19:10 1015 29.97 844 24.92 14.3 57.7 52 4.8 40.6
19:15 1016 30 845 24.95 14 57.1 52 4.5 40
19:20 1016 30 845 24.95 13.9 57.1 55 5.1 41.2
19:25 1016 30 845 24.95 13.6 56.6 56 5.1 41.2
19:30 1017 30.03 846 24.98 13.4 56.1 59 5.7 42.3
19:35 1017 30.03 846 24.98 12.7 54.9 62 5.6 42.2
19:40 1017 30.03 846 24.98 12.6 54.7 63 5.9 42.6
19:45 1017 30.03 846 24.98 12.7 54.9 64 6 42.9
19:50 1017 30.03 846 24.98 12.5 54.4 66 6.3 43.3
19:55 1017 30.03 846 24.98 12.4 54.4 64 5.9 42.6
20:00 1017 30.03 846 24.98 12.4 54.4 64 6 42.7
20:05 1017 30.03 846 24.98 12.4 54.2 63 5.5 41.8
20:10 1017 30.03 846 24.98 12.1 53.8 65 5.8 42.4
20:15 1017 30.03 846 24.98 11.9 53.5 65 5.7 42.2
20:20 1016 30 846 24.98 11.8 53.3 65 5.6 42
20:25 1016 30 846 24.98 11.8 53.2 67 5.9 42.6
20:30 1016 30 846 24.98 11.7 53 67 5.8 42.5
20:35 1016 30 846 24.98 11.5 52.6 68 5.8 42.5
20:40 1016 30 846 24.98 11.5 52.6 66 5.4 41.7
20:45 1016 30 846 24.98 11.7 53 65 5.3 41.5
20:50 1017 30.03 846 24.98 11.8 53.2 65 5.4 41.8
20:55 1017 30.03 846 24.98 11.9 53.3 64 5.4 41.7
21:00 1017 30.03 846 24.98 11.9 53.5 63 5.3 41.5
21:05 1017 30.03 846 24.98 11.9 53.3 63 5.2 41.4
21:10 1017 30.03 847 25.01 11.9 53.5 64 5.3 41.6
21:15 1018 30.06 847 25.01 12 53.7 64 5.5 41.9
21:20 1018 30.06 847 25.01 12.1 53.8 63 5.5 41.8
21:25 1018 30.06 847 25.01 12.1 53.8 64 5.6 42
21:30 1018 30.06 847 25.01 12 53.5 65 5.6 42.1
21:35 1018 30.06 847 25.01 12 53.7 65 5.8 42.4
21:40 1018 30.06 847 25.01 12 53.6 66 5.9 42.6
21:45 1018 30.06 847 25.01 12 53.7 66 6 42.8
21:50 1018 30.06 847 25.01 12 53.7 67 6.2 43.1
21:55 1018 30.06 847 25.01 12 53.6 68 6.2 43.2
22:00 1018 30.06 847 25.01 12 53.6 68 6.3 43.4
22:05 1018 30.06 847 25.01 11.9 53.5 68 6.3 43.4
22:10 1017 30.03 847 25.01 11.7 53.1 69 6.3 43.4
22:15 1017 30.03 847 25.01 11.7 53.1 68 6 42.7
22:20 1017 30.03 847 25.01 11.7 53.1 68 6.2 43.1
22:25 1017 30.03 847 25.01 11.7 53 69 6.2 43.2
22:30 1017 30.03 847 25.01 11.6 53 69 6.1 43
22:35 1017 30.03 847 25.01 11.6 52.9 69 6.2 43.2
22:40 1018 30.06 847 25.01 11.5 52.7 71 6.4 43.5
22:45 1018 30.06 847 25.01 11.4 52.4 72 6.5 43.7
22:50 1018 30.06 847 25.01 11.2 52.2 73 6.6 43.8
22:55 1018 30.06 847 25.01 11.1 52 72 6.4 43.5
23:00 1018 30.06 847 25.01 11.2 52.1 72 6.3 43.4
23:05 1018 30.06 847 25.01 11.2 52.2 73 6.5 43.7
23:10 1018 30.06 847 25.01 11.1 52.1 73 6.5 43.7
23:15 1018 30.06 847 25.01 11.2 52.2 73 6.6 43.8
23:20 1018 30.06 847 25.01 11.3 52.3 72 6.5 43.7
23:25 1018 30.06 847 25.01 11.4 52.5 72 6.5 43.7
23:30 1018 30.06 847 25.01 11.4 52.5 73 6.7 44
23:35 1018 30.06 847 25.01 11.2 52.2 74 6.7 44.1
23:40 1018 30.06 847 25.01 11.1 52.1 75 6.8 44.3
23:45 1018 30.06 847 25.01 11.1 51.9 75 6.8 44.2
23:50 1018 30.06 847 25.01 11.1 52 75 6.8 44.3
23:55 1018 30.06 847 25.01 11 51.8 75 6.9 44.3
24:00 1018 30.06 847 25.01 10.9 51.6 76 6.8 44.2